sensor_id;sensor_type;location;lat;lon;timestamp;temperature;humidity
71879;DHT22;59755;43.834;4.364;2023-03-16T00:01:10;10.80;39.20
71879;DHT22;59755;43.834;4.364;2023-03-16T00:03:36;10.70;39.30
71879;DHT22;59755;43.834;4.364;2023-03-16T00:06:02;10.70;39.70
71879;DHT22;59755;43.834;4.364;2023-03-16T00:08:27;10.80;39.40
71879;DHT22;59755;43.834;4.364;2023-03-16T00:10:53;10.70;39.20
71879;DHT22;59755;43.834;4.364;2023-03-16T00:13:20;10.80;39.60
71879;DHT22;59755;43.834;4.364;2023-03-16T00:15:54;10.60;40.20
71879;DHT22;59755;43.834;4.364;2023-03-16T00:18:21;10.70;40.10
71879;DHT22;59755;43.834;4.364;2023-03-16T00:20:51;10.60;40.20
71879;DHT22;59755;43.834;4.364;2023-03-16T00:23:16;10.60;40.00
71879;DHT22;59755;43.834;4.364;2023-03-16T00:25:42;10.60;40.40
71879;DHT22;59755;43.834;4.364;2023-03-16T00:28:08;10.50;40.30
71879;DHT22;59755;43.834;4.364;2023-03-16T00:30:33;10.50;40.00
71879;DHT22;59755;43.834;4.364;2023-03-16T00:32:59;10.60;39.90
71879;DHT22;59755;43.834;4.364;2023-03-16T00:35:26;10.70;39.90
71879;DHT22;59755;43.834;4.364;2023-03-16T00:37:52;10.60;40.00
71879;DHT22;59755;43.834;4.364;2023-03-16T00:40:21;10.60;40.20
71879;DHT22;59755;43.834;4.364;2023-03-16T00:42:47;10.60;40.40
71879;DHT22;59755;43.834;4.364;2023-03-16T00:45:13;10.50;40.80
71879;DHT22;59755;43.834;4.364;2023-03-16T00:47:38;10.40;40.90
71879;DHT22;59755;43.834;4.364;2023-03-16T00:50:04;10.30;41.40
71879;DHT22;59755;43.834;4.364;2023-03-16T00:52:30;10.30;41.70
71879;DHT22;59755;43.834;4.364;2023-03-16T00:54:55;10.20;41.80
71879;DHT22;59755;43.834;4.364;2023-03-16T00:57:22;10.10;41.80
71879;DHT22;59755;43.834;4.364;2023-03-16T00:59:49;10.10;42.00
71879;DHT22;59755;43.834;4.364;2023-03-16T01:02:15;10.10;42.10
71879;DHT22;59755;43.834;4.364;2023-03-16T01:04:41;10.30;41.40
71879;DHT22;59755;43.834;4.364;2023-03-16T01:07:09;10.30;41.40
71879;DHT22;59755;43.834;4.364;2023-03-16T01:09:37;10.30;41.40
71879;DHT22;59755;43.834;4.364;2023-03-16T01:12:10;10.20;41.40
71879;DHT22;59755;43.834;4.364;2023-03-16T01:14:36;10.10;41.60
71879;DHT22;59755;43.834;4.364;2023-03-16T01:17:02;10.10;41.80
71879;DHT22;59755;43.834;4.364;2023-03-16T01:19:28;10.20;41.80
71879;DHT22;59755;43.834;4.364;2023-03-16T01:21:54;10.10;42.50
71879;DHT22;59755;43.834;4.364;2023-03-16T01:24:20;10.10;42.40
71879;DHT22;59755;43.834;4.364;2023-03-16T01:26:45;10.10;42.20
71879;DHT22;59755;43.834;4.364;2023-03-16T01:29:11;10.20;42.30
71879;DHT22;59755;43.834;4.364;2023-03-16T01:31:37;10.40;41.80
71879;DHT22;59755;43.834;4.364;2023-03-16T01:34:03;10.40;41.90
71879;DHT22;59755;43.834;4.364;2023-03-16T01:36:29;10.40;41.80
71879;DHT22;59755;43.834;4.364;2023-03-16T01:38:55;10.20;42.30
71879;DHT22;59755;43.834;4.364;2023-03-16T01:41:21;10.10;42.70
71879;DHT22;59755;43.834;4.364;2023-03-16T01:43:47;9.90;43.00
71879;DHT22;59755;43.834;4.364;2023-03-16T01:46:18;9.90;42.80
71879;DHT22;59755;43.834;4.364;2023-03-16T01:51:23;9.90;42.80
71879;DHT22;59755;43.834;4.364;2023-03-16T01:53:50;10.00;42.90
71879;DHT22;59755;43.834;4.364;2023-03-16T01:56:19;10.00;43.20
71879;DHT22;59755;43.834;4.364;2023-03-16T01:58:48;10.00;42.60
71879;DHT22;59755;43.834;4.364;2023-03-16T02:01:15;9.90;42.80
71879;DHT22;59755;43.834;4.364;2023-03-16T02:03:41;9.90;42.80
71879;DHT22;59755;43.834;4.364;2023-03-16T02:08:33;9.80;43.40
71879;DHT22;59755;43.834;4.364;2023-03-16T02:10:59;9.70;44.10
71879;DHT22;59755;43.834;4.364;2023-03-16T02:13:25;9.50;44.10
71879;DHT22;59755;43.834;4.364;2023-03-16T02:15:53;9.50;44.40
71879;DHT22;59755;43.834;4.364;2023-03-16T02:18:19;9.40;44.60
71879;DHT22;59755;43.834;4.364;2023-03-16T02:20:53;9.20;44.90
71879;DHT22;59755;43.834;4.364;2023-03-16T02:23:21;9.20;44.90
71879;DHT22;59755;43.834;4.364;2023-03-16T02:28:17;9.60;42.50
71879;DHT22;59755;43.834;4.364;2023-03-16T02:30:44;9.80;41.80
71879;DHT22;59755;43.834;4.364;2023-03-16T02:33:11;9.80;41.50
71879;DHT22;59755;43.834;4.364;2023-03-16T02:35:37;9.90;41.30
71879;DHT22;59755;43.834;4.364;2023-03-16T02:38:03;9.90;41.30
71879;DHT22;59755;43.834;4.364;2023-03-16T02:40:29;9.90;41.90
71879;DHT22;59755;43.834;4.364;2023-03-16T02:45:27;9.70;42.60
71879;DHT22;59755;43.834;4.364;2023-03-16T02:47:57;9.70;42.70
71879;DHT22;59755;43.834;4.364;2023-03-16T02:50:27;9.70;42.30
71879;DHT22;59755;43.834;4.364;2023-03-16T02:52:53;9.70;42.60
71879;DHT22;59755;43.834;4.364;2023-03-16T02:55:19;9.60;43.10
71879;DHT22;59755;43.834;4.364;2023-03-16T02:57:46;9.60;43.20
71879;DHT22;59755;43.834;4.364;2023-03-16T03:00:12;9.60;42.80
71879;DHT22;59755;43.834;4.364;2023-03-16T03:02:42;9.60;42.60
71879;DHT22;59755;43.834;4.364;2023-03-16T03:05:08;9.60;42.70
71879;DHT22;59755;43.834;4.364;2023-03-16T03:07:34;9.50;42.30
71879;DHT22;59755;43.834;4.364;2023-03-16T03:09:59;9.50;42.50
71879;DHT22;59755;43.834;4.364;2023-03-16T03:12:27;9.40;42.40
71879;DHT22;59755;43.834;4.364;2023-03-16T03:14:52;9.50;42.30
71879;DHT22;59755;43.834;4.364;2023-03-16T03:17:18;9.60;42.40
71879;DHT22;59755;43.834;4.364;2023-03-16T03:19:44;9.70;42.40
71879;DHT22;59755;43.834;4.364;2023-03-16T03:22:09;9.80;41.30
71879;DHT22;59755;43.834;4.364;2023-03-16T03:24:35;9.90;40.80
71879;DHT22;59755;43.834;4.364;2023-03-16T03:27:01;9.90;40.60
71879;DHT22;59755;43.834;4.364;2023-03-16T03:29:31;10.00;39.90
71879;DHT22;59755;43.834;4.364;2023-03-16T03:31:59;9.90;40.20
71879;DHT22;59755;43.834;4.364;2023-03-16T03:34:26;10.00;40.10
71879;DHT22;59755;43.834;4.364;2023-03-16T03:36:52;9.90;40.00
71879;DHT22;59755;43.834;4.364;2023-03-16T03:39:18;10.00;39.60
71879;DHT22;59755;43.834;4.364;2023-03-16T03:41:43;9.90;39.80
71879;DHT22;59755;43.834;4.364;2023-03-16T03:44:09;9.80;39.80
71879;DHT22;59755;43.834;4.364;2023-03-16T03:46:35;10.00;39.90
71879;DHT22;59755;43.834;4.364;2023-03-16T03:49:00;9.70;40.70
71879;DHT22;59755;43.834;4.364;2023-03-16T03:51:30;9.60;41.30
71879;DHT22;59755;43.834;4.364;2023-03-16T03:53:56;9.50;41.90
71879;DHT22;59755;43.834;4.364;2023-03-16T03:56:21;9.50;42.00
71879;DHT22;59755;43.834;4.364;2023-03-16T03:58:47;9.40;41.70
71879;DHT22;59755;43.834;4.364;2023-03-16T04:01:12;9.40;41.90
71879;DHT22;59755;43.834;4.364;2023-03-16T04:03:38;9.40;42.10
71879;DHT22;59755;43.834;4.364;2023-03-16T04:06:04;9.40;42.50
71879;DHT22;59755;43.834;4.364;2023-03-16T04:08:31;9.40;42.10
71879;DHT22;59755;43.834;4.364;2023-03-16T04:10:57;9.50;41.20
71879;DHT22;59755;43.834;4.364;2023-03-16T04:13:23;9.60;41.30
71879;DHT22;59755;43.834;4.364;2023-03-16T04:15:48;9.60;41.30
71879;DHT22;59755;43.834;4.364;2023-03-16T04:18:14;9.60;40.80
71879;DHT22;59755;43.834;4.364;2023-03-16T04:20:39;9.60;40.80
71879;DHT22;59755;43.834;4.364;2023-03-16T04:23:05;9.70;40.90
71879;DHT22;59755;43.834;4.364;2023-03-16T04:25:30;9.60;40.90
71879;DHT22;59755;43.834;4.364;2023-03-16T04:27:56;9.50;41.30
71879;DHT22;59755;43.834;4.364;2023-03-16T04:30:22;9.40;41.40
71879;DHT22;59755;43.834;4.364;2023-03-16T04:32:47;9.30;41.70
71879;DHT22;59755;43.834;4.364;2023-03-16T04:35:13;9.30;41.60
71879;DHT22;59755;43.834;4.364;2023-03-16T04:37:39;9.40;41.50
71879;DHT22;59755;43.834;4.364;2023-03-16T04:40:06;9.40;42.00
71879;DHT22;59755;43.834;4.364;2023-03-16T04:42:41;9.50;41.60
71879;DHT22;59755;43.834;4.364;2023-03-16T04:45:07;9.50;41.60
71879;DHT22;59755;43.834;4.364;2023-03-16T04:47:33;9.50;41.40
71879;DHT22;59755;43.834;4.364;2023-03-16T04:49:59;9.40;41.50
71879;DHT22;59755;43.834;4.364;2023-03-16T04:52:25;9.40;41.90
71879;DHT22;59755;43.834;4.364;2023-03-16T04:54:50;9.40;41.80
71879;DHT22;59755;43.834;4.364;2023-03-16T04:57:16;9.30;42.50
71879;DHT22;59755;43.834;4.364;2023-03-16T04:59:43;9.30;42.20
71879;DHT22;59755;43.834;4.364;2023-03-16T05:02:09;9.40;42.10
71879;DHT22;59755;43.834;4.364;2023-03-16T05:04:35;9.50;41.60
71879;DHT22;59755;43.834;4.364;2023-03-16T05:07:01;9.40;41.60
71879;DHT22;59755;43.834;4.364;2023-03-16T05:09:27;9.50;41.60
71879;DHT22;59755;43.834;4.364;2023-03-16T05:11:52;9.40;41.70
71879;DHT22;59755;43.834;4.364;2023-03-16T05:14:18;9.40;41.90
71879;DHT22;59755;43.834;4.364;2023-03-16T05:16:44;9.40;41.90
71879;DHT22;59755;43.834;4.364;2023-03-16T05:19:09;9.30;42.50
71879;DHT22;59755;43.834;4.364;2023-03-16T05:21:35;9.20;42.50
71879;DHT22;59755;43.834;4.364;2023-03-16T05:24:03;9.20;42.60
71879;DHT22;59755;43.834;4.364;2023-03-16T05:26:29;9.20;42.30
71879;DHT22;59755;43.834;4.364;2023-03-16T05:28:54;9.20;42.50
71879;DHT22;59755;43.834;4.364;2023-03-16T05:31:21;9.20;42.60
71879;DHT22;59755;43.834;4.364;2023-03-16T05:33:48;9.20;42.70
71879;DHT22;59755;43.834;4.364;2023-03-16T05:36:13;9.10;42.80
71879;DHT22;59755;43.834;4.364;2023-03-16T05:38:39;9.00;43.10
71879;DHT22;59755;43.834;4.364;2023-03-16T05:41:04;8.90;43.30
71879;DHT22;59755;43.834;4.364;2023-03-16T05:43:30;8.70;43.90
71879;DHT22;59755;43.834;4.364;2023-03-16T05:45:56;8.60;44.20
71879;DHT22;59755;43.834;4.364;2023-03-16T05:48:22;8.70;44.30
71879;DHT22;59755;43.834;4.364;2023-03-16T05:50:50;8.60;44.40
71879;DHT22;59755;43.834;4.364;2023-03-16T05:53:16;8.70;44.70
71879;DHT22;59755;43.834;4.364;2023-03-16T05:55:42;8.80;44.10
71879;DHT22;59755;43.834;4.364;2023-03-16T05:58:08;8.80;44.40
71879;DHT22;59755;43.834;4.364;2023-03-16T06:00:33;8.80;44.20
71879;DHT22;59755;43.834;4.364;2023-03-16T06:02:59;8.90;43.90
71879;DHT22;59755;43.834;4.364;2023-03-16T06:05:25;8.90;43.60
71879;DHT22;59755;43.834;4.364;2023-03-16T06:07:52;8.90;43.70
71879;DHT22;59755;43.834;4.364;2023-03-16T06:10:18;8.90;43.90
71879;DHT22;59755;43.834;4.364;2023-03-16T06:12:44;8.90;43.60
71879;DHT22;59755;43.834;4.364;2023-03-16T06:15:09;8.90;43.50
71879;DHT22;59755;43.834;4.364;2023-03-16T06:17:36;8.90;43.60
71879;DHT22;59755;43.834;4.364;2023-03-16T06:20:02;9.00;43.30
71879;DHT22;59755;43.834;4.364;2023-03-16T06:22:29;9.00;43.30
71879;DHT22;59755;43.834;4.364;2023-03-16T06:24:55;9.00;43.80
71879;DHT22;59755;43.834;4.364;2023-03-16T06:27:20;9.10;43.40
71879;DHT22;59755;43.834;4.364;2023-03-16T06:29:46;9.10;43.20
71879;DHT22;59755;43.834;4.364;2023-03-16T06:32:12;9.00;43.40
71879;DHT22;59755;43.834;4.364;2023-03-16T06:34:38;9.00;43.40
71879;DHT22;59755;43.834;4.364;2023-03-16T06:37:05;9.00;43.50
71879;DHT22;59755;43.834;4.364;2023-03-16T06:39:31;8.90;43.70
71879;DHT22;59755;43.834;4.364;2023-03-16T06:41:57;9.10;43.80
71879;DHT22;59755;43.834;4.364;2023-03-16T06:44:22;9.10;43.60
71879;DHT22;59755;43.834;4.364;2023-03-16T06:46:48;9.10;43.60
71879;DHT22;59755;43.834;4.364;2023-03-16T06:49:14;9.10;43.60
71879;DHT22;59755;43.834;4.364;2023-03-16T06:51:39;9.20;44.20
71879;DHT22;59755;43.834;4.364;2023-03-16T06:54:06;9.20;45.60
71879;DHT22;59755;43.834;4.364;2023-03-16T06:56:32;9.20;45.50
71879;DHT22;59755;43.834;4.364;2023-03-16T06:58:57;9.30;45.30
71879;DHT22;59755;43.834;4.364;2023-03-16T07:01:23;9.20;45.30
71879;DHT22;59755;43.834;4.364;2023-03-16T07:03:49;9.20;46.00
71879;DHT22;59755;43.834;4.364;2023-03-16T07:06:15;9.20;45.30
71879;DHT22;59755;43.834;4.364;2023-03-16T07:08:40;9.30;45.60
71879;DHT22;59755;43.834;4.364;2023-03-16T07:11:07;9.40;45.10
71879;DHT22;59755;43.834;4.364;2023-03-16T07:13:32;9.50;44.30
71879;DHT22;59755;43.834;4.364;2023-03-16T07:16:00;9.60;44.10
71879;DHT22;59755;43.834;4.364;2023-03-16T07:18:25;9.80;43.50
71879;DHT22;59755;43.834;4.364;2023-03-16T07:20:52;9.90;43.20
71879;DHT22;59755;43.834;4.364;2023-03-16T07:23:17;10.00;43.10
71879;DHT22;59755;43.834;4.364;2023-03-16T07:25:43;10.00;43.10
71879;DHT22;59755;43.834;4.364;2023-03-16T07:28:10;10.00;43.10
71879;DHT22;59755;43.834;4.364;2023-03-16T07:30:36;10.10;42.90
71879;DHT22;59755;43.834;4.364;2023-03-16T07:33:01;10.10;42.70
71879;DHT22;59755;43.834;4.364;2023-03-16T07:35:27;10.30;42.40
71879;DHT22;59755;43.834;4.364;2023-03-16T07:37:53;10.30;42.40
71879;DHT22;59755;43.834;4.364;2023-03-16T07:40:19;10.40;42.80
71879;DHT22;59755;43.834;4.364;2023-03-16T07:42:45;10.50;42.60
71879;DHT22;59755;43.834;4.364;2023-03-16T07:45:10;10.50;42.40
71879;DHT22;59755;43.834;4.364;2023-03-16T07:47:36;10.60;42.20
71879;DHT22;59755;43.834;4.364;2023-03-16T07:50:02;10.60;42.40
71879;DHT22;59755;43.834;4.364;2023-03-16T07:52:27;10.70;42.80
71879;DHT22;59755;43.834;4.364;2023-03-16T07:54:53;10.80;43.10
71879;DHT22;59755;43.834;4.364;2023-03-16T07:57:19;10.90;43.00
71879;DHT22;59755;43.834;4.364;2023-03-16T07:59:46;10.90;42.60
71879;DHT22;59755;43.834;4.364;2023-03-16T08:02:15;10.90;42.70
71879;DHT22;59755;43.834;4.364;2023-03-16T08:04:42;11.00;43.10
71879;DHT22;59755;43.834;4.364;2023-03-16T08:07:08;11.00;43.30
71879;DHT22;59755;43.834;4.364;2023-03-16T08:09:34;11.20;43.50
71879;DHT22;59755;43.834;4.364;2023-03-16T08:12:03;11.20;43.40
71879;DHT22;59755;43.834;4.364;2023-03-16T08:14:30;11.40;42.90
71879;DHT22;59755;43.834;4.364;2023-03-16T08:16:58;11.50;42.70
71879;DHT22;59755;43.834;4.364;2023-03-16T08:19:23;11.70;42.50
71879;DHT22;59755;43.834;4.364;2023-03-16T08:21:49;11.80;41.80
71879;DHT22;59755;43.834;4.364;2023-03-16T08:24:15;11.90;41.50
71879;DHT22;59755;43.834;4.364;2023-03-16T08:26:40;12.00;41.70
71879;DHT22;59755;43.834;4.364;2023-03-16T08:29:06;12.10;39.80
71879;DHT22;59755;43.834;4.364;2023-03-16T08:31:32;12.20;39.40
71879;DHT22;59755;43.834;4.364;2023-03-16T08:33:59;12.30;39.00
71879;DHT22;59755;43.834;4.364;2023-03-16T08:36:25;12.40;38.60
71879;DHT22;59755;43.834;4.364;2023-03-16T08:38:53;12.50;38.40
71879;DHT22;59755;43.834;4.364;2023-03-16T08:41:19;12.50;38.30
71879;DHT22;59755;43.834;4.364;2023-03-16T08:43:46;12.50;38.70
71879;DHT22;59755;43.834;4.364;2023-03-16T08:46:11;12.70;38.80
71879;DHT22;59755;43.834;4.364;2023-03-16T08:48:40;12.80;38.90
71879;DHT22;59755;43.834;4.364;2023-03-16T08:51:07;12.80;38.00
71879;DHT22;59755;43.834;4.364;2023-03-16T08:53:33;12.90;37.90
71879;DHT22;59755;43.834;4.364;2023-03-16T08:56:06;13.00;37.20
71879;DHT22;59755;43.834;4.364;2023-03-16T08:58:33;13.10;37.40
71879;DHT22;59755;43.834;4.364;2023-03-16T09:01:02;13.30;37.10
71879;DHT22;59755;43.834;4.364;2023-03-16T09:03:30;13.50;37.00
71879;DHT22;59755;43.834;4.364;2023-03-16T09:06:02;13.70;36.60
71879;DHT22;59755;43.834;4.364;2023-03-16T09:08:28;13.80;36.60
71879;DHT22;59755;43.834;4.364;2023-03-16T09:11:02;14.00;35.70
71879;DHT22;59755;43.834;4.364;2023-03-16T09:13:28;13.80;36.20
71879;DHT22;59755;43.834;4.364;2023-03-16T09:15:54;13.80;36.40
71879;DHT22;59755;43.834;4.364;2023-03-16T09:18:19;13.90;36.60
71879;DHT22;59755;43.834;4.364;2023-03-16T09:20:45;14.10;35.80
71879;DHT22;59755;43.834;4.364;2023-03-16T09:23:12;14.30;35.00
71879;DHT22;59755;43.834;4.364;2023-03-16T09:25:38;14.20;35.90
71879;DHT22;59755;43.834;4.364;2023-03-16T09:28:04;14.30;35.30
71879;DHT22;59755;43.834;4.364;2023-03-16T09:30:30;14.50;35.70
71879;DHT22;59755;43.834;4.364;2023-03-16T09:32:56;14.60;36.00
71879;DHT22;59755;43.834;4.364;2023-03-16T09:35:22;14.60;35.40
71879;DHT22;59755;43.834;4.364;2023-03-16T09:37:48;14.60;35.10
71879;DHT22;59755;43.834;4.364;2023-03-16T09:40:21;14.50;35.20
71879;DHT22;59755;43.834;4.364;2023-03-16T09:43:11;14.50;36.00
71879;DHT22;59755;43.834;4.364;2023-03-16T09:45:39;14.60;35.90
71879;DHT22;59755;43.834;4.364;2023-03-16T09:48:07;14.60;36.70
71879;DHT22;59755;43.834;4.364;2023-03-16T09:50:36;14.90;35.60
71879;DHT22;59755;43.834;4.364;2023-03-16T09:53:09;15.20;35.50
71879;DHT22;59755;43.834;4.364;2023-03-16T09:55:38;15.30;35.30
71879;DHT22;59755;43.834;4.364;2023-03-16T09:58:04;15.50;35.30
71879;DHT22;59755;43.834;4.364;2023-03-16T10:00:35;15.60;35.50
71879;DHT22;59755;43.834;4.364;2023-03-16T10:05:29;15.90;35.20
71879;DHT22;59755;43.834;4.364;2023-03-16T10:08:00;16.10;34.80
71879;DHT22;59755;43.834;4.364;2023-03-16T10:12:57;16.80;33.80
71879;DHT22;59755;43.834;4.364;2023-03-16T10:15:25;16.70;33.80
71879;DHT22;59755;43.834;4.364;2023-03-16T10:20:21;17.20;33.80
71879;DHT22;59755;43.834;4.364;2023-03-16T10:22:48;16.70;34.40
71879;DHT22;59755;43.834;4.364;2023-03-16T10:27:46;17.30;34.40
71879;DHT22;59755;43.834;4.364;2023-03-16T10:35:33;19.00;31.90
71879;DHT22;59755;43.834;4.364;2023-03-16T10:37:55;19.50;31.20
71879;DHT22;59755;43.834;4.364;2023-03-16T10:40:23;20.10;30.20
71879;DHT22;59755;43.834;4.364;2023-03-16T10:42:48;20.70;29.70
71879;DHT22;59755;43.834;4.364;2023-03-16T10:45:25;21.30;28.70
71879;DHT22;59755;43.834;4.364;2023-03-16T10:47:53;21.70;28.10
71879;DHT22;59755;43.834;4.364;2023-03-16T10:50:22;22.30;27.10
71879;DHT22;59755;43.834;4.364;2023-03-16T10:52:49;21.60;27.70
71879;DHT22;59755;43.834;4.364;2023-03-16T10:55:18;22.20;27.40
71879;DHT22;59755;43.834;4.364;2023-03-16T10:57:48;22.40;27.20
71879;DHT22;59755;43.834;4.364;2023-03-16T11:00:18;22.70;27.00
71879;DHT22;59755;43.834;4.364;2023-03-16T11:02:49;23.20;26.30
71879;DHT22;59755;43.834;4.364;2023-03-16T11:12:53;23.30;26.70
71879;DHT22;59755;43.834;4.364;2023-03-16T11:15:19;24.20;26.20
71879;DHT22;59755;43.834;4.364;2023-03-16T11:17:48;25.70;25.70
71879;DHT22;59755;43.834;4.364;2023-03-16T11:20:16;25.20;25.20
71879;DHT22;59755;43.834;4.364;2023-03-16T11:22:43;25.30;24.90
71879;DHT22;59755;43.834;4.364;2023-03-16T11:25:12;25.50;25.40
71879;DHT22;59755;43.834;4.364;2023-03-16T11:30:24;26.80;23.80
71879;DHT22;59755;43.834;4.364;2023-03-16T11:32:53;27.00;24.00
71879;DHT22;59755;43.834;4.364;2023-03-16T11:35:23;26.40;24.10
71879;DHT22;59755;43.834;4.364;2023-03-16T11:37:57;26.10;23.00
71879;DHT22;59755;43.834;4.364;2023-03-16T11:40:30;24.80;23.50
71879;DHT22;59755;43.834;4.364;2023-03-16T11:51:12;25.90;22.30
71879;DHT22;59755;43.834;4.364;2023-03-16T11:54:02;25.40;22.10
71879;DHT22;59755;43.834;4.364;2023-03-16T12:12:03;26.50;20.10
71879;DHT22;59755;43.834;4.364;2023-03-16T12:14:46;25.00;20.70
71879;DHT22;59755;43.834;4.364;2023-03-16T12:17:17;24.00;21.60
71879;DHT22;59755;43.834;4.364;2023-03-16T12:19:50;25.40;22.00
71879;DHT22;59755;43.834;4.364;2023-03-16T12:22:40;24.50;22.50
71879;DHT22;59755;43.834;4.364;2023-03-16T12:27:56;25.60;22.10
71879;DHT22;59755;43.834;4.364;2023-03-16T12:33:41;25.60;21.10
71879;DHT22;59755;43.834;4.364;2023-03-16T12:41:59;26.10;20.70
71879;DHT22;59755;43.834;4.364;2023-03-16T12:44:36;24.80;22.40
71879;DHT22;59755;43.834;4.364;2023-03-16T12:47:11;25.50;22.00
71879;DHT22;59755;43.834;4.364;2023-03-16T12:49:48;25.50;21.80
71879;DHT22;59755;43.834;4.364;2023-03-16T12:52:22;25.50;21.30
71879;DHT22;59755;43.834;4.364;2023-03-16T12:54:52;25.00;22.50
71879;DHT22;59755;43.834;4.364;2023-03-16T12:57:21;26.60;22.00
71879;DHT22;59755;43.834;4.364;2023-03-16T12:59:53;26.80;22.20
71879;DHT22;59755;43.834;4.364;2023-03-16T13:02:29;26.30;24.10
71879;DHT22;59755;43.834;4.364;2023-03-16T13:04:57;25.70;24.60
71879;DHT22;59755;43.834;4.364;2023-03-16T13:07:24;25.60;25.30
71879;DHT22;59755;43.834;4.364;2023-03-16T13:09:55;25.40;25.60
71879;DHT22;59755;43.834;4.364;2023-03-16T13:14:49;24.40;26.30
71879;DHT22;59755;43.834;4.364;2023-03-16T13:19:45;25.20;25.40
71879;DHT22;59755;43.834;4.364;2023-03-16T13:22:27;25.50;24.40
71879;DHT22;59755;43.834;4.364;2023-03-16T13:24:54;25.80;24.10
71879;DHT22;59755;43.834;4.364;2023-03-16T13:29:51;25.80;23.60
71879;DHT22;59755;43.834;4.364;2023-03-16T13:32:19;25.90;23.50
71879;DHT22;59755;43.834;4.364;2023-03-16T13:34:46;26.30;23.30
71879;DHT22;59755;43.834;4.364;2023-03-16T13:37:14;27.00;23.40
71879;DHT22;59755;43.834;4.364;2023-03-16T13:39:40;27.00;22.90
71879;DHT22;59755;43.834;4.364;2023-03-16T13:44:32;28.20;22.50
71879;DHT22;59755;43.834;4.364;2023-03-16T13:47:03;28.20;22.90
71879;DHT22;59755;43.834;4.364;2023-03-16T13:49:29;26.40;22.30
71879;DHT22;59755;43.834;4.364;2023-03-16T13:51:55;26.80;22.80
71879;DHT22;59755;43.834;4.364;2023-03-16T13:54:25;27.20;23.10
71879;DHT22;59755;43.834;4.364;2023-03-16T13:56:54;26.80;21.50
71879;DHT22;59755;43.834;4.364;2023-03-16T13:59:20;26.30;21.30
71879;DHT22;59755;43.834;4.364;2023-03-16T14:01:46;27.00;20.50
71879;DHT22;59755;43.834;4.364;2023-03-16T14:04:13;28.00;20.20
71879;DHT22;59755;43.834;4.364;2023-03-16T14:06:53;27.80;20.50
71879;DHT22;59755;43.834;4.364;2023-03-16T14:09:20;28.70;20.60
71879;DHT22;59755;43.834;4.364;2023-03-16T14:11:46;29.90;20.30
71879;DHT22;59755;43.834;4.364;2023-03-16T14:14:18;28.30;21.40
71879;DHT22;59755;43.834;4.364;2023-03-16T14:16:45;28.70;21.40
71879;DHT22;59755;43.834;4.364;2023-03-16T14:19:19;27.50;20.70
71879;DHT22;59755;43.834;4.364;2023-03-16T14:21:46;27.50;21.30
71879;DHT22;59755;43.834;4.364;2023-03-16T14:26:50;27.10;21.20
71879;DHT22;59755;43.834;4.364;2023-03-16T14:29:19;27.00;21.80
71879;DHT22;59755;43.834;4.364;2023-03-16T14:31:45;27.80;21.20
71879;DHT22;59755;43.834;4.364;2023-03-16T14:36:46;27.80;21.60
71879;DHT22;59755;43.834;4.364;2023-03-16T14:39:18;26.80;22.30
71879;DHT22;59755;43.834;4.364;2023-03-16T14:41:47;27.40;20.90
71879;DHT22;59755;43.834;4.364;2023-03-16T14:44:18;27.60;21.10
71879;DHT22;59755;43.834;4.364;2023-03-16T14:46:45;28.00;21.20
71879;DHT22;59755;43.834;4.364;2023-03-16T14:51:43;26.90;21.20
71879;DHT22;59755;43.834;4.364;2023-03-16T14:54:12;26.90;21.10
71879;DHT22;59755;43.834;4.364;2023-03-16T14:56:39;27.00;20.40
71879;DHT22;59755;43.834;4.364;2023-03-16T14:59:06;26.40;20.80
71879;DHT22;59755;43.834;4.364;2023-03-16T15:01:33;25.10;22.10
71879;DHT22;59755;43.834;4.364;2023-03-16T15:03:59;24.50;22.40
71879;DHT22;59755;43.834;4.364;2023-03-16T15:06:24;24.90;23.00
71879;DHT22;59755;43.834;4.364;2023-03-16T15:08:51;25.10;23.20
71879;DHT22;59755;43.834;4.364;2023-03-16T15:11:17;26.00;22.80
71879;DHT22;59755;43.834;4.364;2023-03-16T15:13:49;25.90;22.80
71879;DHT22;59755;43.834;4.364;2023-03-16T15:16:14;25.30;23.00
71879;DHT22;59755;43.834;4.364;2023-03-16T15:18:40;24.90;23.60
71879;DHT22;59755;43.834;4.364;2023-03-16T15:21:13;25.20;23.40
71879;DHT22;59755;43.834;4.364;2023-03-16T15:23:41;24.00;25.00
71879;DHT22;59755;43.834;4.364;2023-03-16T15:26:10;22.90;26.40
71879;DHT22;59755;43.834;4.364;2023-03-16T15:28:37;22.90;26.60
71879;DHT22;59755;43.834;4.364;2023-03-16T15:31:03;22.90;27.90
71879;DHT22;59755;43.834;4.364;2023-03-16T15:33:28;23.60;27.30
71879;DHT22;59755;43.834;4.364;2023-03-16T15:35:55;23.60;27.20
71879;DHT22;59755;43.834;4.364;2023-03-16T15:38:22;23.10;27.10
71879;DHT22;59755;43.834;4.364;2023-03-16T15:40:49;21.30;28.70
71879;DHT22;59755;43.834;4.364;2023-03-16T15:43:16;20.60;29.40
71879;DHT22;59755;43.834;4.364;2023-03-16T15:45:43;20.30;29.80
71879;DHT22;59755;43.834;4.364;2023-03-16T15:48:09;20.00;29.90
71879;DHT22;59755;43.834;4.364;2023-03-16T15:50:35;19.70;31.00
71879;DHT22;59755;43.834;4.364;2023-03-16T15:53:03;18.70;30.10
71879;DHT22;59755;43.834;4.364;2023-03-16T15:55:40;18.80;31.10
71879;DHT22;59755;43.834;4.364;2023-03-16T15:58:09;18.40;30.50
71879;DHT22;59755;43.834;4.364;2023-03-16T16:00:39;18.30;31.30
71879;DHT22;59755;43.834;4.364;2023-03-16T16:03:05;18.20;31.20
71879;DHT22;59755;43.834;4.364;2023-03-16T16:05:31;17.90;32.50
71879;DHT22;59755;43.834;4.364;2023-03-16T16:07:57;17.90;33.00
71879;DHT22;59755;43.834;4.364;2023-03-16T16:10:23;17.60;32.80
71879;DHT22;59755;43.834;4.364;2023-03-16T16:12:49;17.60;33.50
71879;DHT22;59755;43.834;4.364;2023-03-16T16:17:42;17.50;33.50
71879;DHT22;59755;43.834;4.364;2023-03-16T16:20:15;17.40;33.30
71879;DHT22;59755;43.834;4.364;2023-03-16T16:22:41;17.40;34.30
71879;DHT22;59755;43.834;4.364;2023-03-16T16:25:08;17.50;35.70
71879;DHT22;59755;43.834;4.364;2023-03-16T16:27:36;17.50;36.00
71879;DHT22;59755;43.834;4.364;2023-03-16T16:30:04;17.20;37.30
71879;DHT22;59755;43.834;4.364;2023-03-16T16:32:38;17.20;37.80
71879;DHT22;59755;43.834;4.364;2023-03-16T16:35:10;17.10;38.70
71879;DHT22;59755;43.834;4.364;2023-03-16T16:37:36;16.90;38.80
71879;DHT22;59755;43.834;4.364;2023-03-16T16:40:02;17.00;39.20
71879;DHT22;59755;43.834;4.364;2023-03-16T16:42:28;17.00;40.80
71879;DHT22;59755;43.834;4.364;2023-03-16T16:44:53;16.80;41.80
71879;DHT22;59755;43.834;4.364;2023-03-16T16:47:19;16.80;41.50
71879;DHT22;59755;43.834;4.364;2023-03-16T16:49:48;16.50;42.40
71879;DHT22;59755;43.834;4.364;2023-03-16T16:52:15;16.40;42.90
71879;DHT22;59755;43.834;4.364;2023-03-16T16:54:41;16.40;42.60
71879;DHT22;59755;43.834;4.364;2023-03-16T16:57:13;16.40;42.20
71879;DHT22;59755;43.834;4.364;2023-03-16T16:59:40;16.30;42.10
71879;DHT22;59755;43.834;4.364;2023-03-16T17:03:08;16.10;43.30
71879;DHT22;59755;43.834;4.364;2023-03-16T17:05:03;16.00;44.30
71879;DHT22;59755;43.834;4.364;2023-03-16T17:07:28;15.80;46.00